Tropical Cyclones
[Index]
Main Index Home Page Stock Weather Photos Extreme Storms Discussion Storm News and Storm Chasing Reports Tropical Cyclones / Hurricanes / Typhoons Weather Data and Links Wild Fires / Bushfires Weather Observation Techniques Weather Picture Catalogue Tornado Pictures and Reports Stock Video Footage and DVDs for sale
Season 1982-1983 Tropical Cyclone MONTY Track Map
Season 1982-1983 Summaries: [BoM-AU] [JTWC-AU] [JTWC-SIO] [JTWC-SPAC] [JTWC-SH]
<<- Previous TC | BoM 1982-1983 Season | Next TC ->>

click for intensity scale information  Lat/long Grid: Show Hide

 Date Labels: Show Hide

Bureau of Meteorology Tropical Cyclone Data

Name: MONTY
Number: 642 / 198283_07

22 Apr 1983 06:00 UTC to 29 Apr 1983 12:00 UTC

    date/time    lat    long    hPa   cat  kts
1983-04-22 06    9.8    96.0   1004                     
1983-04-22 12    9.7    96.6   1003                     
1983-04-22 18    9.7    97.2   1007                     
1983-04-23 00    9.7    97.7   1002                     
1983-04-23 06    9.8    98.6   1000                     
1983-04-23 12   10.2    99.6    998                     
1983-04-23 18   10.6   100.5    994    1                
1983-04-24 00   11.1   101.5    990    1                
1983-04-24 06   11.7   102.2    985    2                
1983-04-24 12   12.6   102.6    982    2                
1983-04-24 18   13.5   102.9    979    2                
1983-04-25 00   14.3   103.4    977    2                
1983-04-25 06   15.3   103.7    975    2                
1983-04-25 12   16.2   103.7    975    2                
1983-04-25 18   16.9   103.7    975    2                
1983-04-26 00   18.1   103.7    975    2                
1983-04-26 06   19.1   103.8    975    2                
1983-04-26 12   19.9   104.0    977    2                
1983-04-26 18   20.8   104.9    979    2                
1983-04-27 00   21.5   105.6    982    2                
1983-04-27 06   22.0   106.1    985    2                
1983-04-27 12   22.7   106.7    990    1                
1983-04-27 18   23.5   107.2    994    1                
1983-04-28 00   24.4   107.3   1000                     
1983-04-28 06   25.2   107.3   1002                     
1983-04-28 12   25.5   107.2   1005                     
1983-04-28 18   26.0   106.9   1007                     
1983-04-29 00   26.4   106.8   1008                     
1983-04-29 06   27.3   106.3   1010                     
1983-04-29 12   28.0   106.0   1010                     
Winds are 10-min average.

Tropical cyclone tracks developed by Michael Bath using data from the Bureau of Meteorology and Google Maps.


[Australian Severe Weather index] [Copyright Notice] [Email Contacts] [Search This Site] [Privacy Policy]
Document: tropical_cyclone_monty.htm Updated: 30 May 2013